Time;durP1;ratioP1;P1;durP2;ratioP2;P2;SDS_P1;SDS_P2;PMS_P1;PMS_P2;Temp;Humidity;BMP_temperature;BMP_pressure;BME280_temperature;BME280_humidity;BME280_pressure;Samples;Min_cycle;Max_cycle;Signal;HPM_P1;HPM_P2
2022/11/09 00:01:16;;;;;;;1.60;1.50;;;10.60;99.40;;;;;;5137866;27;20607;-80
2022/11/09 00:10:27;;;;;;;2.43;2.17;;;10.70;99.30;;;;;;5137514;27;20678;-80
2022/11/09 00:12:55;;;;;;;2.90;2.30;;;10.90;98.70;;;;;;5137450;27;21345;-80
2022/11/09 00:15:22;;;;;;;2.10;1.90;;;10.80;98.50;;;;;;5138019;27;20626;-80
2022/11/09 00:17:49;;;;;;;1.63;1.53;;;10.90;98.40;;;;;;5137898;27;20714;-80
2022/11/09 00:20:16;;;;;;;2.03;1.80;;;10.80;98.20;;;;;;5137361;27;20653;-79
2022/11/09 00:22:46;;;;;;;1.73;1.63;;;10.80;98.40;;;;;;5138077;27;20607;-80
2022/11/09 00:25:13;;;;;;;2.53;2.03;;;10.60;99.90;;;;;;5137656;27;20614;-80
2022/11/09 00:27:40;;;;;;;2.53;2.33;;;10.80;98.20;;;;;;5136451;27;20606;-80
2022/11/09 00:30:10;;;;;;;1.73;1.50;;;10.90;98.20;;;;;;5116970;28;20714;-79
2022/11/09 00:32:37;;;;;;;1.80;1.70;;;10.80;98.10;;;;;;5117972;27;20616;-80
2022/11/09 00:35:05;;;;;;;1.87;1.77;;;10.80;98.30;;;;;;5116810;28;20608;-80
2022/11/09 00:37:32;;;;;;;1.83;1.70;;;10.90;98.40;;;;;;5116667;28;20624;-81
2022/11/09 00:39:58;;;;;;;2.27;2.17;;;10.80;98.10;;;;;;5117572;28;20663;-79
2022/11/09 00:42:25;;;;;;;2.73;1.93;;;10.90;97.90;;;;;;5117297;28;20630;-80
2022/11/09 00:44:52;;;;;;;1.70;1.60;;;11.10;99.60;;;;;;5116936;28;20651;-80
2022/11/09 00:47:20;;;;;;;1.77;1.67;;;10.90;97.90;;;;;;5117515;28;20695;-80
2022/11/09 00:49:47;;;;;;;2.30;1.30;;;10.90;97.90;;;;;;5117465;28;20622;-80
2022/11/09 00:52:14;;;;;;;1.80;1.70;;;10.90;98.10;;;;;;5116731;28;20635;-80
2022/11/09 00:54:40;;;;;;;2.13;1.90;;;10.80;98.30;;;;;;5116862;28;20719;-80
2022/11/09 00:57:07;;;;;;;2.57;2.10;;;10.80;98.30;;;;;;5115963;28;20623;-80
2022/11/09 00:59:34;;;;;;;1.47;1.30;;;;;;;;;;5126942;27;20749;-80
2022/11/09 01:02:01;;;;;;;1.40;1.30;;;10.80;98.30;;;;;;5138200;27;20603;-80
2022/11/09 01:04:29;;;;;;;5.50;1.93;;;10.80;98.70;;;;;;5136669;27;20611;-80
2022/11/09 01:06:56;;;;;;;2.23;1.70;;;10.90;98.50;;;;;;5136102;27;20618;-80
2022/11/09 01:09:23;;;;;;;3.20;2.07;;;10.90;98.40;;;;;;5136397;27;20615;-80
2022/11/09 01:11:50;;;;;;;4.10;2.73;;;10.90;98.20;;;;;;5137285;27;20627;-80
2022/11/09 01:14:16;;;;;;;2.23;1.70;;;10.80;98.50;;;;;;5137228;27;20638;-80
2022/11/09 01:16:43;;;;;;;1.83;1.73;;;10.80;98.40;;;;;;5137186;27;20710;-80
2022/11/09 01:19:11;;;;;;;4.10;1.93;;;10.80;98.80;;;;;;5136543;27;20695;-80
2022/11/09 01:21:39;;;;;;;1.77;1.67;;;10.80;98.90;;;;;;5136454;27;21255;-80
2022/11/09 01:24:08;;;;;;;1.80;1.70;;;10.80;98.80;;;;;;5137286;27;20675;-79
2022/11/09 01:26:35;;;;;;;3.60;2.20;;;10.80;98.60;;;;;;5134832;27;20707;-80
2022/11/09 01:29:02;;;;;;;2.23;1.27;;;10.80;98.70;;;;;;5122182;27;20619;-80
2022/11/09 01:31:29;;;;;;;1.50;1.30;;;10.80;98.40;;;;;;5115298;28;20620;-80
2022/11/09 01:33:55;;;;;;;1.80;1.43;;;10.80;98.60;;;;;;5116285;28;20647;-81
2022/11/09 01:36:23;;;;;;;1.60;1.07;;;10.80;98.30;;;;;;5115138;28;20627;-81
2022/11/09 01:38:52;;;;;;;4.20;1.90;;;10.90;98.30;;;;;;5116168;28;20620;-81
2022/11/09 01:41:22;;;;;;;2.30;2.03;;;10.80;98.40;;;;;;5116172;28;20751;-81
2022/11/09 01:44:07;;;;;;;2.90;2.20;;;10.90;98.50;;;;;;5116034;28;20628;-81
2022/11/09 01:46:39;;;;;;;1.70;1.23;;;10.80;98.50;;;;;;5116824;28;20691;-81
2022/11/09 01:49:12;;;;;;;2.10;1.80;;;10.80;98.60;;;;;;5117335;28;20695;-80
2022/11/09 01:51:42;;;;;;;2.50;2.33;;;10.80;98.90;;;;;;5116295;28;20740;-81
2022/11/09 01:54:15;;;;;;;2.70;1.70;;;10.70;98.90;;;;;;5112966;28;20634;-81
2022/11/09 01:56:44;;;;;;;2.03;1.77;;;10.70;99.10;;;;;;5114031;28;20718;-81
2022/11/09 01:59:15;;;;;;;2.87;1.37;;;10.70;99.00;;;;;;5121845;27;20633;-81
2022/11/09 02:01:43;;;;;;;6.37;1.53;;;10.80;99.30;;;;;;5134600;27;20781;-81
2022/11/09 02:04:13;;;;;;;2.30;1.80;;;10.80;99.90;;;;;;5133816;27;20622;-81
2022/11/09 02:06:40;;;;;;;1.40;1.40;;;10.70;99.70;;;;;;5132748;27;20713;-81
2022/11/09 02:09:27;;;;;;;1.50;1.33;;;10.70;99.90;;;;;;5132488;27;20641;-82
2022/11/09 02:11:55;;;;;;;2.17;2.03;;;10.70;99.90;;;;;;5133996;27;20654;-81
2022/11/09 02:14:25;;;;;;;2.23;2.03;;;10.70;99.80;;;;;;5132096;27;20622;-81
2022/11/09 02:16:52;;;;;;;1.50;1.40;;;10.70;99.90;;;;;;5131547;27;20677;-81
2022/11/09 02:19:19;;;;;;;2.63;1.80;;;10.80;99.90;;;;;;5131386;27;21255;-81
2022/11/09 02:21:48;;;;;;;1.27;1.23;;;10.70;99.90;;;;;;5131051;27;21070;-81
2022/11/09 02:24:15;;;;;;;1.47;1.37;;;10.80;99.90;;;;;;5134018;27;20618;-81
2022/11/09 02:26:44;;;;;;;3.07;2.80;;;10.80;99.70;;;;;;5133867;27;20613;-81
2022/11/09 02:29:14;;;;;;;0.67;0.67;;;10.80;99.50;;;;;;5119846;27;20651;-81
2022/11/09 02:31:45;;;;;;;1.70;1.43;;;10.90;99.20;;;;;;5113363;28;20673;-81
2022/11/09 02:34:15;;;;;;;2.10;1.00;;;11.20;99.90;;;;;;5113346;28;20627;-81
2022/11/09 02:36:42;;;;;;;1.73;1.63;;;11.30;99.20;;;;;;5113568;28;20608;-80
2022/11/09 02:39:13;;;;;;;1.80;0.70;;;11.10;99.90;;;;;;5114764;28;20668;-80
2022/11/09 02:41:44;;;;;;;1.23;1.13;;;11.20;98.10;;;;;;5113849;28;21014;-81
2022/11/09 02:44:11;;;;;;;1.47;1.03;;;11.30;98.10;;;;;;5112062;28;20723;-81
2022/11/09 02:46:38;;;;;;;0.70;0.70;;;10.90;99.80;;;;;;5110785;28;20608;-81
2022/11/09 02:49:05;;;;;;;1.00;0.90;;;11.30;97.80;;;;;;5111220;28;20620;-80
2022/11/09 02:51:33;;;;;;;8.60;1.37;;;11.50;97.40;;;;;;5111502;28;21267;-81
2022/11/09 02:54:00;;;;;;;0.90;0.90;;;11.50;97.60;;;;;;5112187;28;20608;-80
2022/11/09 02:56:28;;;;;;;4.73;1.47;;;11.50;98.20;;;;;;5111051;28;20608;-80
2022/11/09 02:58:55;;;;;;;2.07;0.93;;;11.40;98.60;;;;;;5116875;28;20706;-81
2022/11/09 03:01:22;;;;;;;1.10;1.10;;;11.40;99.90;;;;;;5131127;27;20822;-81
2022/11/09 03:03:49;;;;;;;1.33;0.80;;;11.40;99.10;;;;;;5131792;27;21253;-81
2022/11/09 03:06:16;;;;;;;1.53;1.13;;;11.40;99.20;;;;;;5132923;27;20702;-80
2022/11/09 03:08:44;;;;;;;1.17;1.07;;;11.40;99.70;;;;;;5132647;28;20611;-80
2022/11/09 03:11:11;;;;;;;0.73;0.73;;;11.50;99.10;;;;;;5133052;28;20642;-80
2022/11/09 03:13:39;;;;;;;5.50;2.20;;;11.50;99.10;;;;;;5132675;27;20669;-81
2022/11/09 03:16:07;;;;;;;0.87;0.87;;;11.50;99.10;;;;;;5133593;28;20602;-81
2022/11/09 03:18:34;;;;;;;0.80;0.80;;;11.50;99.60;;;;;;5134618;27;20618;-81
2022/11/09 03:21:02;;;;;;;2.63;1.63;;;11.40;99.90;;;;;;5133775;27;20647;-80
2022/11/09 03:23:29;;;;;;;1.20;1.10;;;;;;;;;;5134924;27;20635;-80
2022/11/09 03:25:56;;;;;;;2.07;1.53;;;11.30;99.90;;;;;;5133708;27;20584;-81
2022/11/09 03:28:23;;;;;;;1.10;1.00;;;11.70;99.90;;;;;;5126420;27;20719;-81
2022/11/09 03:30:52;;;;;;;2.57;1.37;;;11.30;99.90;;;;;;5117005;28;20599;-81
2022/11/09 03:33:19;;;;;;;1.67;1.30;;;11.30;99.90;;;;;;5118006;28;21043;-81
2022/11/09 03:35:46;;;;;;;1.27;1.03;;;11.20;99.90;;;;;;5121571;28;20989;-81
2022/11/09 03:38:13;;;;;;;1.83;1.70;;;11.20;99.90;;;;;;5118879;28;20619;-80
2022/11/09 03:40:41;;;;;;;1.50;1.40;;;;;;;;;;5120807;28;20647;-82
2022/11/09 03:43:08;;;;;;;1.83;1.73;;;11.20;99.90;;;;;;5121393;28;20603;-81
2022/11/09 03:45:35;;;;;;;1.23;1.10;;;;;;;;;;5118642;28;20695;-81
2022/11/09 03:48:04;;;;;;;2.83;1.87;;;11.10;99.90;;;;;;5119215;27;20604;-81
2022/11/09 03:50:33;;;;;;;2.27;1.63;;;11.00;99.90;;;;;;5119477;28;20602;-81
2022/11/09 03:53:01;;;;;;;1.73;1.63;;;10.70;99.90;;;;;;5117015;28;20645;-81
2022/11/09 03:55:29;;;;;;;1.90;1.80;;;11.10;99.90;;;;;;5116585;28;20615;-81
2022/11/09 03:57:56;;;;;;;3.23;2.23;;;11.00;99.90;;;;;;5116014;28;20668;-81
2022/11/09 04:00:23;;;;;;;2.20;1.53;;;;;;;;;;5132150;27;20703;-81
2022/11/09 04:02:50;;;;;;;2.40;2.20;;;;;;;;;;5137447;27;20713;-81
2022/11/09 04:05:19;;;;;;;1.37;1.27;;;11.00;99.90;;;;;;5136660;27;20617;-80
2022/11/09 04:07:49;;;;;;;1.60;1.33;;;11.00;99.90;;;;;;5134806;27;20615;-81
2022/11/09 04:10:16;;;;;;;2.77;2.50;;;11.10;99.90;;;;;;5135031;27;20603;-81
2022/11/09 04:12:43;;;;;;;1.23;1.10;;;;;;;;;;5135116;27;20624;-81
2022/11/09 04:15:11;;;;;;;2.60;1.90;;;11.00;99.90;;;;;;5135440;27;20741;-81
2022/11/09 04:17:38;;;;;;;1.53;1.43;;;11.00;99.90;;;;;;5135738;27;20702;-81
2022/11/09 04:20:06;;;;;;;8.23;1.90;;;11.00;99.90;;;;;;5133897;27;20623;-81
2022/11/09 04:22:34;;;;;;;1.20;1.10;;;10.90;99.90;;;;;;5133510;27;20803;-80
2022/11/09 04:25:01;;;;;;;2.77;1.70;;;11.00;99.90;;;;;;5136416;27;20741;-81
2022/11/09 04:27:28;;;;;;;1.77;1.60;;;10.90;99.90;;;;;;5135604;27;20618;-80
2022/11/09 04:29:55;;;;;;;1.60;1.50;;;10.90;99.90;;;;;;5113451;27;20619;-81
2022/11/09 04:32:22;;;;;;;2.43;2.23;;;11.00;99.90;;;;;;5111115;28;20738;-81
2022/11/09 04:34:49;;;;;;;1.47;1.30;;;11.00;99.90;;;;;;5126588;27;20621;-81
2022/11/09 04:37:16;;;;;;;2.67;1.17;;;11.00;99.90;;;;;;5129549;27;20617;-81
2022/11/09 04:39:44;;;;;;;1.63;1.53;;;10.90;99.90;;;;;;5129961;27;20610;-81
2022/11/09 04:42:11;;;;;;;1.80;1.70;;;10.90;99.90;;;;;;5129796;27;20658;-82
2022/11/09 04:44:38;;;;;;;3.17;2.40;;;10.90;99.90;;;;;;5129975;27;20690;-81
2022/11/09 04:47:05;;;;;;;2.67;1.80;;;10.90;99.90;;;;;;5129469;27;20629;-82
2022/11/09 04:49:32;;;;;;;4.33;1.53;;;11.00;99.90;;;;;;5129184;27;21527;-83
2022/11/09 04:51:58;;;;;;;4.03;2.57;;;11.00;99.90;;;;;;5129941;27;20619;-82
2022/11/09 04:54:25;;;;;;;2.50;2.30;;;11.00;99.90;;;;;;5129731;27;20618;-82
2022/11/09 04:56:54;;;;;;;1.60;1.50;;;11.00;99.90;;;;;;5129155;27;20614;-84
2022/11/09 04:59:21;;;;;;;2.37;2.17;;;;;;;;;;5120675;27;20727;-84
2022/11/09 05:01:48;;;;;;;1.77;1.43;;;11.00;99.90;;;;;;5108626;28;20655;-84
2022/11/09 05:04:15;;;;;;;8.03;1.77;;;11.20;99.90;;;;;;5108172;28;20619;-83
2022/11/09 05:06:42;;;;;;;1.83;1.73;;;;;;;;;;5114172;27;20606;-83
2022/11/09 05:09:09;;;;;;;4.13;1.70;;;11.10;99.90;;;;;;5125466;27;20616;-83
2022/11/09 05:11:36;;;;;;;3.23;1.57;;;11.00;99.90;;;;;;5124298;27;20603;-83
2022/11/09 05:14:05;;;;;;;3.93;1.73;;;11.00;99.90;;;;;;5118956;27;21179;-83
2022/11/09 05:16:32;;;;;;;2.10;1.90;;;11.00;99.90;;;;;;5118808;27;20959;-83
2022/11/09 05:18:59;;;;;;;3.27;2.07;;;;;;;;;;5118189;27;20623;-83
2022/11/09 05:21:26;;;;;;;1.33;1.23;;;10.90;99.90;;;;;;5117365;27;20794;-83
2022/11/09 05:23:58;;;;;;;1.80;1.70;;;;;;;;;;5123077;27;20627;-84
2022/11/09 05:26:27;;;;;;;1.80;1.70;;;11.00;99.90;;;;;;5128163;27;20611;-83
2022/11/09 05:28:54;;;;;;;1.73;1.63;;;;;;;;;;5129543;27;20659;-83
2022/11/09 05:31:22;;;;;;;2.00;1.90;;;11.00;99.90;;;;;;5129391;27;20653;-84
2022/11/09 05:33:50;;;;;;;1.27;1.20;;;;;;;;;;5121991;27;20673;-83
2022/11/09 05:36:17;;;;;;;8.10;2.40;;;;;;;;;;5108431;28;20623;-84
2022/11/09 05:38:44;;;;;;;2.10;1.90;;;10.90;99.90;;;;;;5108078;28;20676;-84
2022/11/09 05:41:12;;;;;;;1.17;1.00;;;;;;;;;;5113784;27;20634;-84
2022/11/09 05:43:39;;;;;;;3.57;2.17;;;;;;;;;;5117029;27;20768;-84
2022/11/09 05:46:06;;;;;;;1.80;1.70;;;;;;;;;;5117497;27;20656;-84
2022/11/09 05:48:34;;;;;;;1.20;1.10;;;10.80;99.90;;;;;;5117201;27;20971;-84
2022/11/09 05:51:02;;;;;;;1.73;1.63;;;10.80;99.90;;;;;;5117693;27;20706;-85
2022/11/09 05:53:29;;;;;;;1.50;1.40;;;;;;;;;;5126725;27;20661;-84
2022/11/09 05:55:56;;;;;;;2.80;2.53;;;10.80;99.90;;;;;;5127642;27;20998;-84
2022/11/09 05:58:23;;;;;;;1.67;1.57;;;;;;;;;;5126038;27;20679;-84
2022/11/09 06:00:50;;;;;;;3.00;1.77;;;10.90;99.90;;;;;;5106949;28;21491;-83
2022/11/09 06:03:17;;;;;;;2.07;1.90;;;10.80;99.90;;;;;;5108185;28;21317;-83
2022/11/09 06:05:46;;;;;;;1.60;1.50;;;10.80;99.90;;;;;;5107181;28;20748;-83
2022/11/09 06:08:15;;;;;;;2.10;1.70;;;10.70;99.90;;;;;;5106954;28;21356;-83
2022/11/09 06:10:42;;;;;;;1.50;1.40;;;10.70;99.90;;;;;;5107708;28;20616;-84
2022/11/09 06:13:10;;;;;;;22.07;2.47;;;;;;;;;;5107993;28;20612;-84
2022/11/09 06:15:37;;;;;;;2.43;2.23;;;;;;;;;;5107887;28;21102;-83
2022/11/09 06:18:04;;;;;;;1.67;1.57;;;10.90;99.90;;;;;;5126281;27;20606;-84
2022/11/09 06:20:32;;;;;;;3.03;2.43;;;10.80;99.90;;;;;;5128545;27;20595;-84
2022/11/09 06:23:01;;;;;;;2.87;2.57;;;10.70;99.90;;;;;;5128810;27;20662;-84
2022/11/09 06:25:30;;;;;;;2.10;1.73;;;10.50;99.90;;;;;;5128175;27;20619;-83
2022/11/09 06:27:57;;;;;;;9.40;2.40;;;10.40;99.90;;;;;;5124516;27;20625;-83
2022/11/09 06:30:24;;;;;;;8.70;2.17;;;;;;;;;;5107911;28;20619;-83
2022/11/09 06:32:51;;;;;;;3.37;2.57;;;10.50;99.90;;;;;;5108132;28;20635;-83
2022/11/09 06:35:18;;;;;;;2.77;2.30;;;10.60;99.90;;;;;;5107945;28;20730;-83
2022/11/09 06:37:45;;;;;;;2.87;2.67;;;;;;;;;;5107602;28;20800;-84
2022/11/09 06:40:14;;;;;;;1.80;1.70;;;10.60;99.90;;;;;;5108094;28;20611;-83
2022/11/09 06:42:41;;;;;;;2.53;2.07;;;10.70;99.90;;;;;;5107744;28;21024;-83
2022/11/09 06:45:09;;;;;;;1.67;1.50;;;11.40;99.90;;;;;;5108106;28;20707;-84
2022/11/09 06:47:36;;;;;;;2.60;2.00;;;;;;;;;;5107137;28;20680;-83
2022/11/09 06:50:03;;;;;;;1.70;1.47;;;10.80;99.90;;;;;;5108062;28;20709;-83
2022/11/09 06:52:30;;;;;;;2.10;2.00;;;10.70;99.90;;;;;;5107222;28;20612;-85
2022/11/09 06:54:57;;;;;;;4.40;2.47;;;;;;;;;;5107830;28;20687;-83
2022/11/09 06:57:28;;;;;;;2.10;1.90;;;10.70;99.90;;;;;;5107144;28;21016;-83
2022/11/09 06:59:55;;;;;;;2.07;1.80;;;12.10;99.90;;;;;;5121071;28;20692;-83
2022/11/09 07:02:22;;;;;;;2.27;2.07;;;;;;;;;;5127937;27;20742;-83
2022/11/09 07:04:52;;;;;;;2.27;1.60;;;10.80;99.90;;;;;;5129204;27;20615;-83
2022/11/09 07:07:19;;;;;;;2.87;2.67;;;10.80;99.90;;;;;;5131374;27;20703;-83
2022/11/09 07:09:46;;;;;;;2.07;1.87;;;;;;;;;;5130853;27;20629;-83
2022/11/09 07:12:13;;;;;;;4.53;1.87;;;;;;;;;;5131986;27;21309;-83
2022/11/09 07:14:41;;;;;;;1.50;1.40;;;10.70;99.90;;;;;;5132304;27;20622;-83
2022/11/09 07:17:08;;;;;;;3.13;2.10;;;11.00;99.90;;;;;;5131142;27;20617;-83
2022/11/09 07:19:35;;;;;;;2.43;2.23;;;;;;;;;;5131346;27;20997;-83
2022/11/09 07:22:02;;;;;;;2.90;2.30;;;10.80;99.90;;;;;;5131640;27;21311;-83
2022/11/09 07:24:29;;;;;;;1.50;1.40;;;10.70;99.90;;;;;;5132031;27;20688;-83
2022/11/09 07:26:56;;;;;;;2.53;1.77;;;;;;;;;;5131123;27;20633;-83
2022/11/09 07:29:23;;;;;;;2.77;1.87;;;10.70;99.90;;;;;;5115837;27;21006;-83
2022/11/09 07:31:51;;;;;;;1.53;1.30;;;10.60;99.90;;;;;;5111204;28;20618;-84
2022/11/09 07:34:18;;;;;;;1.30;1.03;;;10.90;99.90;;;;;;5110886;28;20708;-83
2022/11/09 07:36:45;;;;;;;1.50;0.73;;;10.20;99.90;;;;;;5110773;28;21230;-83
2022/11/09 07:39:12;;;;;;;0.80;0.80;;;10.80;99.90;;;;;;5111108;28;21024;-83
2022/11/09 07:41:38;;;;;;;0.83;0.83;;;10.90;99.90;;;;;;5111793;28;20659;-83
2022/11/09 07:44:06;;;;;;;1.33;1.23;;;;;;;;;;5110753;28;20620;-83
2022/11/09 07:46:34;;;;;;;1.30;1.20;;;10.90;99.90;;;;;;5110481;28;20641;-84
2022/11/09 07:49:02;;;;;;;1.40;0.90;;;10.90;99.90;;;;;;5110916;28;20612;-83
2022/11/09 07:51:29;;;;;;;1.47;1.27;;;;;;;;;;5111220;28;20635;-83
2022/11/09 07:53:56;;;;;;;1.77;1.43;;;;;;;;;;5111015;28;20631;-83
2022/11/09 07:56:24;;;;;;;1.50;1.40;;;;;;;;;;5110796;28;20711;-83
2022/11/09 07:58:50;;;;;;;3.87;2.73;;;11.10;99.90;;;;;;5114872;27;20614;-83
2022/11/09 08:01:18;;;;;;;2.20;1.63;;;;;;;;;;5130954;27;20721;-83
2022/11/09 08:03:45;;;;;;;1.60;1.50;;;;;;;;;;5131216;27;20623;-82
2022/11/09 08:06:13;;;;;;;1.57;1.47;;;11.30;99.90;;;;;;5131547;27;20602;-83
2022/11/09 08:08:40;;;;;;;2.27;1.60;;;11.70;99.90;;;;;;5129718;27;20599;-83
2022/11/09 08:11:07;;;;;;;2.07;1.87;;;11.10;99.90;;;;;;5131354;27;21197;-82
2022/11/09 08:13:34;;;;;;;3.50;2.07;;;;;;;;;;5130459;27;20732;-83
2022/11/09 08:16:02;;;;;;;6.20;2.13;;;11.30;99.90;;;;;;5130016;27;20652;-82
2022/11/09 08:18:28;;;;;;;1.40;1.30;;;11.30;99.90;;;;;;5130383;27;20603;-82
2022/11/09 08:20:56;;;;;;;1.67;1.50;;;11.30;99.90;;;;;;5131108;27;21168;-82
2022/11/09 08:23:24;;;;;;;1.80;1.70;;;11.40;99.90;;;;;;5130955;27;20684;-82
2022/11/09 08:25:51;;;;;;;2.00;1.90;;;;;;;;;;5130782;27;21160;-82
2022/11/09 08:28:18;;;;;;;1.73;1.47;;;11.50;99.90;;;;;;5123314;27;20619;-82
2022/11/09 08:30:45;;;;;;;9.90;2.00;;;11.50;99.90;;;;;;5109753;28;21173;-82
2022/11/09 08:33:13;;;;;;;1.50;1.30;;;11.50;99.90;;;;;;5110125;28;21226;-82
2022/11/09 08:35:40;;;;;;;2.60;2.17;;;11.60;99.90;;;;;;5110071;28;20620;-82
2022/11/09 08:38:06;;;;;;;2.00;1.90;;;11.60;99.90;;;;;;5109678;28;20719;-82
2022/11/09 08:40:35;;;;;;;1.70;1.50;;;11.30;99.90;;;;;;5109915;28;20635;-82
2022/11/09 08:43:03;;;;;;;1.97;1.80;;;11.60;99.90;;;;;;5110025;28;20643;-83
2022/11/09 08:45:32;;;;;;;1.27;1.20;;;11.50;99.90;;;;;;5109713;28;21215;-82
2022/11/09 08:48:00;;;;;;;2.07;1.80;;;11.60;99.90;;;;;;5109599;28;20620;-83
2022/11/09 08:50:27;;;;;;;1.83;1.73;;;11.60;99.90;;;;;;5109802;28;20730;-82
2022/11/09 08:52:54;;;;;;;1.50;1.00;;;11.40;99.90;;;;;;5110031;28;20626;-83
2022/11/09 08:55:21;;;;;;;2.40;2.20;;;12.10;99.90;;;;;;5109242;28;20669;-84
2022/11/09 08:57:49;;;;;;;1.20;1.20;;;11.90;99.90;;;;;;5109192;28;20611;-83
2022/11/09 09:00:17;;;;;;;1.33;1.03;;;12.00;99.90;;;;;;5126196;27;20611;-83
2022/11/09 09:02:44;;;;;;;1.97;1.00;;;11.90;99.90;;;;;;5129779;27;20666;-83
2022/11/09 09:05:10;;;;;;;1.17;1.07;;;12.00;99.90;;;;;;5129891;27;20614;-83
2022/11/09 09:07:37;;;;;;;1.63;1.33;;;12.90;99.90;;;;;;5129166;27;20713;-84
2022/11/09 09:10:05;;;;;;;3.07;1.10;;;12.20;99.90;;;;;;5128217;27;21041;-83
2022/11/09 09:12:32;;;;;;;1.30;0.53;;;12.10;99.90;;;;;;5129816;27;20716;-83
2022/11/09 09:15:01;;;;;;;0.70;0.70;;;12.50;99.90;;;;;;5129485;27;20679;-83
2022/11/09 09:17:28;;;;;;;0.60;0.57;;;;;;;;;;5129316;27;20614;-83
2022/11/09 09:19:55;;;;;;;0.53;0.50;;;;;;;;;;5130019;27;20615;-83
2022/11/09 09:22:22;;;;;;;0.60;0.60;;;12.00;99.90;;;;;;5129283;27;20739;-83
2022/11/09 09:24:50;;;;;;;0.87;0.80;;;12.00;99.90;;;;;;5129847;27;20707;-83
2022/11/09 09:27:17;;;;;;;0.97;0.83;;;12.30;99.90;;;;;;5128506;27;20697;-82
2022/11/09 09:29:44;;;;;;;1.07;1.03;;;12.20;99.90;;;;;;5110761;27;20978;-83
2022/11/09 09:32:12;;;;;;;0.50;0.40;;;12.30;99.90;;;;;;5108736;28;20696;-82
2022/11/09 09:34:39;;;;;;;0.60;0.60;;;12.30;99.90;;;;;;5108865;28;20711;-82
2022/11/09 09:37:06;;;;;;;0.80;0.50;;;;;;;;;;5107706;28;21433;-83
2022/11/09 09:39:33;;;;;;;0.77;0.50;;;12.10;99.90;;;;;;5109101;28;21010;-83
2022/11/09 09:42:02;;;;;;;1.40;1.20;;;12.30;99.90;;;;;;5108840;28;20756;-82
2022/11/09 09:44:34;;;;;;;0.60;0.60;;;12.20;99.90;;;;;;5109275;28;21173;-82
2022/11/09 09:47:10;;;;;;;0.60;0.40;;;12.30;99.90;;;;;;5108225;28;20642;-82
2022/11/09 09:49:43;;;;;;;0.67;0.43;;;12.50;99.90;;;;;;5108175;28;20702;-82
2022/11/09 09:52:18;;;;;;;0.70;0.70;;;12.50;99.90;;;;;;5109115;28;21082;-82
2022/11/09 09:54:56;;;;;;;2.77;0.90;;;12.50;99.90;;;;;;5108878;28;20616;-82
2022/11/09 09:57:25;;;;;;;0.73;0.73;;;12.60;99.90;;;;;;5107934;28;20623;-82
2022/11/09 09:59:57;;;;;;;0.70;0.70;;;12.80;99.90;;;;;;5115612;27;20704;-82
2022/11/09 10:02:26;;;;;;;0.37;0.37;;;12.80;99.90;;;;;;5120516;27;20993;-82
2022/11/09 10:04:57;;;;;;;0.90;0.70;;;12.90;99.90;;;;;;5129138;27;20717;-82
2022/11/09 10:07:28;;;;;;;0.70;0.70;;;12.90;99.90;;;;;;5128589;27;21034;-82
2022/11/09 10:10:20;;;;;;;1.17;1.03;;;12.90;99.90;;;;;;5128225;27;20619;-82
2022/11/09 10:13:02;;;;;;;0.60;0.60;;;12.90;99.90;;;;;;5128946;27;21165;-82
2022/11/09 10:15:33;;;;;;;0.97;0.70;;;13.00;99.90;;;;;;5128806;27;20630;-82
2022/11/09 10:18:14;;;;;;;1.33;1.23;;;13.00;99.90;;;;;;5128187;27;20721;-82
2022/11/09 10:20:52;;;;;;;1.00;0.70;;;12.80;99.90;;;;;;5128939;27;20633;-82
2022/11/09 10:23:40;;;;;;;0.67;0.67;;;13.00;99.90;;;;;;5129608;27;20766;-82
2022/11/09 10:26:17;;;;;;;0.80;0.70;;;13.00;99.90;;;;;;5129428;27;20651;-82
2022/11/09 10:28:47;;;;;;;0.50;0.50;;;13.00;99.90;;;;;;5129195;27;20618;-82
2022/11/09 10:31:17;;;;;;;0.80;0.80;;;13.10;99.90;;;;;;5128829;27;20719;-82
2022/11/09 10:33:45;;;;;;;4.80;1.57;;;13.20;99.90;;;;;;5121725;28;20626;-82
2022/11/09 10:36:22;;;;;;;1.33;0.90;;;13.20;99.90;;;;;;5108507;28;20727;-81
2022/11/09 10:38:53;;;;;;;1.07;0.87;;;13.30;99.90;;;;;;5108849;28;21137;-82
2022/11/09 10:41:27;;;;;;;0.70;0.70;;;13.30;99.90;;;;;;5112915;28;20655;-82
2022/11/09 10:43:54;;;;;;;1.10;0.67;;;13.60;99.90;;;;;;5112452;28;20768;-82
2022/11/09 10:46:21;;;;;;;2.37;1.23;;;13.40;99.90;;;;;;5112035;28;20627;-82
2022/11/09 10:48:48;;;;;;;0.97;0.97;;;13.50;99.90;;;;;;5111871;28;20616;-81
2022/11/09 10:51:33;;;;;;;1.27;1.17;;;13.50;99.90;;;;;;5112186;28;21185;-82
2022/11/09 10:54:16;;;;;;;2.97;1.07;;;13.60;99.90;;;;;;5112130;28;20623;-83
2022/11/09 10:56:48;;;;;;;1.13;1.10;;;13.60;99.90;;;;;;5111926;27;20622;-81
2022/11/09 10:59:48;;;;;;;1.50;1.40;;;11.60;99.90;;;;;;5119826;27;21064;-81
2022/11/09 11:02:46;;;;;;;1.20;0.90;;;13.70;99.90;;;;;;5132482;27;21176;-81
2022/11/09 11:05:38;;;;;;;0.63;0.63;;;13.70;99.90;;;;;;5132764;27;20623;-81
2022/11/09 11:08:32;;;;;;;0.80;0.80;;;13.70;99.90;;;;;;5131412;27;20629;-81
2022/11/09 11:11:21;;;;;;;3.90;1.00;;;13.60;99.90;;;;;;5132750;27;20705;-81
2022/11/09 11:13:49;;;;;;;1.60;1.00;;;13.90;99.90;;;;;;5132947;27;20623;-81
2022/11/09 11:16:26;;;;;;;0.93;0.93;;;13.90;99.90;;;;;;5132513;27;20634;-81
2022/11/09 11:18:53;;;;;;;0.80;0.77;;;;;;;;;;5132777;27;20687;-81
2022/11/09 11:21:21;;;;;;;0.87;0.80;;;14.20;99.90;;;;;;5133164;27;20646;-81
2022/11/09 11:26:52;;;;;;;1.60;1.30;;;14.00;99.90;;;;;;5147610;27;20916;-82
2022/11/09 11:29:35;;;;;;;1.87;1.40;;;13.90;99.90;;;;;;5149056;27;20626;-82
2022/11/09 11:32:02;;;;;;;1.17;1.17;;;14.10;99.90;;;;;;5148844;27;20618;-81
2022/11/09 11:34:29;;;;;;;1.73;1.07;;;14.00;99.90;;;;;;5134333;27;20625;-81
2022/11/09 11:37:21;;;;;;;1.40;1.30;;;14.10;99.90;;;;;;5126989;27;20646;-81
2022/11/09 11:40:00;;;;;;;3.57;1.20;;;14.10;99.90;;;;;;5127226;27;20706;-82
2022/11/09 11:43:03;;;;;;;1.33;1.23;;;14.10;99.90;;;;;;5127826;27;20668;-81
2022/11/09 11:45:35;;;;;;;0.83;0.83;;;14.00;99.90;;;;;;5127067;28;20672;-81
2022/11/09 11:48:20;;;;;;;1.57;1.47;;;14.00;99.90;;;;;;5126659;27;20711;-81
2022/11/09 11:50:51;;;;;;;1.37;1.27;;;13.90;99.90;;;;;;5127461;27;20634;-81
2022/11/09 11:53:32;;;;;;;0.60;0.50;;;14.00;99.90;;;;;;5127483;27;20976;-81
2022/11/09 11:56:22;;;;;;;6.40;1.33;;;14.30;99.90;;;;;;5127571;28;20617;-81
2022/11/09 11:59:15;;;;;;;0.90;0.90;;;13.90;99.90;;;;;;5131023;27;20625;-81
2022/11/09 12:01:56;;;;;;;1.33;0.90;;;14.20;99.90;;;;;;5148836;27;20611;-81
2022/11/09 12:04:44;;;;;;;1.47;1.33;;;14.00;99.90;;;;;;5148854;27;21259;-81
2022/11/09 12:07:22;;;;;;;1.00;1.00;;;14.50;99.90;;;;;;5147639;27;20720;-81
2022/11/09 12:10:12;;;;;;;1.20;1.07;;;14.10;99.90;;;;;;5147353;27;20741;-81
2022/11/09 12:12:47;;;;;;;1.10;1.00;;;14.10;99.90;;;;;;5148366;27;20620;-81
2022/11/09 12:15:40;;;;;;;0.80;0.80;;;14.20;99.90;;;;;;5148039;27;21093;-81
2022/11/09 12:18:22;;;;;;;1.03;0.93;;;14.80;99.90;;;;;;5147120;27;20622;-81
2022/11/09 12:20:57;;;;;;;1.07;1.07;;;14.10;99.90;;;;;;5147252;27;20708;-81
2022/11/09 12:24:01;;;;;;;0.93;0.93;;;14.20;99.90;;;;;;5146949;27;20621;-81
2022/11/09 12:26:42;;;;;;;1.30;1.20;;;14.30;99.90;;;;;;5145386;27;20763;-80
2022/11/09 12:29:19;;;;;;;1.33;0.90;;;14.30;99.90;;;;;;5146033;27;21058;-81
2022/11/09 12:31:59;;;;;;;2.83;1.33;;;14.40;99.90;;;;;;5145610;27;21186;-81
2022/11/09 12:34:31;;;;;;;1.00;1.00;;;14.40;99.90;;;;;;5132388;27;20613;-81
2022/11/09 12:37:02;;;;;;;1.17;1.03;;;15.30;99.90;;;;;;5117650;28;20611;-80
2022/11/09 12:39:35;;;;;;;2.43;1.33;;;14.50;99.90;;;;;;5112535;28;21057;-80
2022/11/09 12:42:13;;;;;;;2.00;1.23;;;14.50;99.90;;;;;;5112089;28;20625;-80
2022/11/09 12:44:45;;;;;;;0.70;0.70;;;14.60;99.90;;;;;;5111640;28;20623;-81
2022/11/09 12:47:17;;;;;;;1.50;1.07;;;14.70;99.90;;;;;;5111537;28;20713;-80
2022/11/09 12:49:46;;;;;;;0.97;0.90;;;14.70;99.90;;;;;;5112222;28;20726;-80
2022/11/09 12:52:15;;;;;;;1.33;1.23;;;14.70;99.90;;;;;;5112071;28;20626;-80
2022/11/09 12:54:45;;;;;;;1.20;0.97;;;14.70;99.90;;;;;;5112601;28;20631;-80
2022/11/09 12:57:16;;;;;;;1.43;1.33;;;14.70;99.90;;;;;;5110510;28;20614;-81
2022/11/09 12:59:48;;;;;;;0.90;0.90;;;14.70;99.90;;;;;;5123089;27;21056;-80
2022/11/09 13:02:24;;;;;;;0.60;0.60;;;14.80;99.90;;;;;;5131568;27;20622;-80
2022/11/09 13:04:56;;;;;;;0.90;0.77;;;14.70;99.90;;;;;;5131538;27;20622;-80
2022/11/09 13:07:48;;;;;;;1.40;1.10;;;14.80;99.90;;;;;;5131134;27;20623;-81
2022/11/09 13:10:29;;;;;;;1.40;1.00;;;14.80;99.90;;;;;;5131931;27;20625;-80
2022/11/09 13:13:03;;;;;;;0.97;0.87;;;14.80;99.90;;;;;;5132125;27;20619;-80
2022/11/09 13:15:33;;;;;;;1.03;0.70;;;14.70;99.90;;;;;;5132390;27;20610;-83
2022/11/09 13:18:04;;;;;;;1.57;1.47;;;14.70;99.90;;;;;;5130748;27;21287;-80
2022/11/09 13:20:46;;;;;;;0.80;0.80;;;14.60;99.90;;;;;;5131919;27;20663;-82
2022/11/09 13:23:29;;;;;;;1.70;1.20;;;14.60;99.90;;;;;;5128765;27;20741;-80
2022/11/09 13:25:56;;;;;;;1.20;1.10;;;14.50;99.90;;;;;;5131524;27;20682;-79